Terminal Aerodrome Forecast
Issued by NWS

Home | Current Version | Previous Version | Graphics & Text | Print | Product List | Glossary On
Versions: 1 2 3 4 5 6 7 8 9 10 11 12 13 14 15 16 17
000
FTUS45 KGGW 161121
TAFSDY
TAF
KSDY 161121Z 1612/1712 VRB05KT P6SM VCFG FEW002
     FM161400 VRB05KT P6SM FEW210=

USA.gov is the U.S. government's official web portal to all federal, state and local government web resources and services.